createdAt,value
2018-03-07T00:01:32.769Z,2.65
2018-03-07T00:04:00.269Z,2.67
2018-03-07T00:06:27.753Z,2.71
2018-03-07T00:08:55.213Z,2.73
2018-03-07T00:11:22.671Z,2.73
2018-03-07T00:13:50.171Z,2.71
2018-03-07T00:16:17.599Z,2.74
2018-03-07T00:18:45.101Z,2.75
2018-03-07T00:21:12.555Z,2.73
2018-03-07T00:23:40.130Z,2.78
2018-03-07T00:26:07.601Z,2.75
2018-03-07T00:28:35.023Z,2.74
2018-03-07T00:31:02.540Z,2.69
2018-03-07T00:33:30.037Z,2.68
2018-03-07T00:35:57.543Z,2.62
2018-03-07T00:38:25.062Z,2.67
2018-03-07T00:40:52.549Z,2.62
2018-03-07T00:43:20.011Z,2.59
2018-03-07T00:45:47.465Z,2.56
2018-03-07T00:48:14.989Z,2.62
2018-03-07T00:50:42.447Z,2.58
2018-03-07T00:53:09.957Z,2.54
2018-03-07T00:55:37.402Z,2.56
2018-03-07T00:58:04.947Z,2.58
2018-03-07T01:00:32.453Z,2.61
2018-03-07T01:02:59.900Z,2.58
2018-03-07T01:05:27.369Z,2.56
2018-03-07T01:07:54.825Z,2.55
2018-03-07T01:10:22.337Z,2.58
2018-03-07T01:12:49.817Z,2.56
2018-03-07T01:15:17.271Z,2.50
2018-03-07T01:17:44.750Z,2.51
2018-03-07T01:20:12.203Z,2.56
2018-03-07T01:22:39.644Z,2.57
2018-03-07T01:25:07.116Z,2.47
2018-03-07T01:27:34.610Z,2.49
2018-03-07T01:30:02.055Z,2.43
2018-03-07T01:32:29.553Z,2.48
2018-03-07T01:34:57.052Z,2.47
2018-03-07T01:37:25.227Z,2.43
2018-03-07T01:39:54.999Z,2.42
2018-03-07T01:42:22.490Z,2.37
2018-03-07T01:44:49.949Z,2.46
2018-03-07T01:47:17.400Z,2.42
2018-03-07T01:49:44.935Z,2.35
2018-03-07T01:52:12.392Z,2.30
2018-03-07T01:54:39.903Z,2.26
2018-03-07T01:57:07.362Z,2.28
2018-03-07T01:59:34.846Z,2.37
2018-03-07T02:02:02.301Z,2.36
2018-03-07T02:04:29.812Z,2.41
2018-03-07T02:06:57.302Z,2.34
2018-03-07T02:09:24.763Z,2.35
2018-03-07T02:11:52.230Z,2.38
2018-03-07T02:14:19.810Z,2.45
2018-03-07T02:16:47.278Z,2.44
2018-03-07T02:19:14.760Z,2.47
2018-03-07T02:21:42.245Z,2.49
2018-03-07T02:24:09.720Z,2.41
2018-03-07T02:26:37.162Z,2.36
2018-03-07T02:29:04.694Z,2.28
2018-03-07T02:31:32.137Z,2.24
2018-03-07T02:33:59.700Z,2.21
2018-03-07T02:36:33.491Z,2.21
2018-03-07T02:39:01.023Z,2.17
2018-03-07T02:41:28.507Z,2.17
2018-03-07T02:43:55.969Z,2.19
2018-03-07T02:46:23.444Z,2.17
2018-03-07T02:48:50.891Z,2.22
2018-03-07T02:51:18.367Z,2.29
2018-03-07T02:53:45.813Z,2.26
2018-03-07T02:56:13.260Z,2.19
2018-03-07T02:58:40.774Z,2.22
2018-03-07T03:01:08.232Z,2.26
2018-03-07T03:03:35.755Z,2.17
2018-03-07T03:08:30.300Z,2.17
2018-03-07T03:10:57.758Z,2.16
2018-03-07T03:13:26.344Z,2.14
2018-03-07T03:15:53.779Z,2.21
2018-03-07T03:18:21.236Z,2.17
2018-03-07T03:20:48.692Z,2.17
2018-03-07T03:23:16.150Z,2.23
2018-03-07T03:25:43.609Z,2.22
2018-03-07T03:28:11.654Z,2.20
2018-03-07T03:30:39.105Z,2.17
2018-03-07T03:33:06.570Z,2.13
2018-03-07T03:35:34.044Z,2.18
2018-03-07T03:38:01.490Z,2.15
2018-03-07T03:40:29.208Z,2.14
2018-03-07T03:42:56.667Z,2.09
2018-03-07T03:45:24.119Z,2.09
2018-03-07T03:47:51.601Z,2.12
2018-03-07T03:50:19.050Z,2.08
2018-03-07T03:52:46.544Z,2.09
2018-03-07T03:55:14.087Z,2.10
2018-03-07T03:57:46.503Z,2.15
2018-03-07T04:00:13.944Z,2.15
2018-03-07T04:02:41.437Z,2.14
2018-03-07T04:05:08.909Z,2.13
2018-03-07T04:07:36.373Z,2.10
2018-03-07T04:10:03.841Z,2.11
2018-03-07T04:12:31.313Z,2.11
2018-03-07T04:14:58.775Z,2.11
2018-03-07T04:17:26.239Z,2.09
2018-03-07T04:19:53.768Z,2.11
2018-03-07T04:22:22.122Z,2.13
2018-03-07T04:24:49.587Z,2.12
2018-03-07T04:27:17.097Z,2.08
2018-03-07T04:29:44.606Z,2.10
2018-03-07T04:32:12.111Z,2.09
2018-03-07T04:34:39.638Z,2.10
2018-03-07T04:37:07.096Z,2.11
2018-03-07T04:39:34.552Z,2.10
2018-03-07T04:42:02.048Z,2.11
2018-03-07T04:44:29.479Z,2.15
2018-03-07T04:46:56.968Z,2.17
2018-03-07T04:49:24.445Z,2.16
2018-03-07T04:51:51.909Z,2.14
2018-03-07T04:54:19.376Z,2.15
2018-03-07T04:56:46.845Z,2.14
2018-03-07T04:59:14.291Z,2.15
2018-03-07T05:01:41.749Z,2.13
2018-03-07T05:04:09.211Z,2.14
2018-03-07T05:06:36.666Z,2.14
2018-03-07T05:09:04.158Z,2.16
2018-03-07T05:11:31.630Z,2.15
2018-03-07T05:13:59.083Z,2.17
2018-03-07T05:16:26.599Z,2.18
2018-03-07T05:18:54.089Z,2.16
2018-03-07T05:21:21.628Z,2.15
2018-03-07T05:23:49.147Z,2.16
2018-03-07T05:26:16.654Z,2.16
2018-03-07T05:28:44.115Z,2.12
2018-03-07T05:31:11.619Z,2.09
2018-03-07T05:33:39.118Z,2.10
2018-03-07T05:36:06.705Z,2.11
2018-03-07T05:38:34.171Z,2.14
2018-03-07T05:41:01.971Z,2.13
2018-03-07T05:43:30.402Z,2.15
2018-03-07T05:45:57.924Z,2.16
2018-03-07T05:48:25.382Z,2.20
2018-03-07T05:50:52.839Z,2.25
2018-03-07T05:53:20.331Z,2.21
2018-03-07T05:55:47.801Z,2.24
2018-03-07T05:58:15.252Z,2.24
2018-03-07T06:00:42.757Z,2.18
2018-03-07T06:03:10.537Z,2.15
2018-03-07T06:05:38.003Z,2.14
2018-03-07T06:08:06.223Z,2.16
2018-03-07T06:10:33.729Z,2.19
2018-03-07T06:13:01.313Z,2.20
2018-03-07T06:15:28.751Z,2.24
2018-03-07T06:17:56.284Z,2.25
2018-03-07T06:20:23.785Z,2.26
2018-03-07T06:22:51.221Z,2.25
2018-03-07T06:25:18.675Z,2.18
2018-03-07T06:27:46.185Z,2.19
2018-03-07T06:30:13.695Z,2.18
2018-03-07T06:32:41.173Z,2.16
2018-03-07T06:35:08.756Z,2.17
2018-03-07T06:37:36.280Z,2.20
2018-03-07T06:40:03.751Z,2.24
2018-03-07T06:42:31.243Z,2.28
2018-03-07T06:44:58.751Z,2.36
2018-03-07T06:47:26.261Z,2.35
2018-03-07T06:49:54.702Z,2.39
2018-03-07T06:52:22.237Z,2.41
2018-03-07T06:54:49.811Z,2.40
2018-03-07T06:57:17.281Z,2.40
2018-03-07T06:59:44.781Z,2.40
2018-03-07T07:02:12.257Z,2.41
2018-03-07T07:04:39.750Z,2.41
2018-03-07T07:07:07.213Z,2.40
2018-03-07T07:09:34.698Z,2.39
2018-03-07T07:12:02.217Z,2.37
2018-03-07T07:14:29.709Z,2.37
2018-03-07T07:16:57.232Z,2.39
2018-03-07T07:19:24.697Z,2.42
2018-03-07T07:21:52.177Z,2.39
2018-03-07T07:24:19.615Z,2.45
2018-03-07T07:29:14.821Z,2.49
2018-03-07T07:31:42.435Z,2.55
2018-03-07T07:34:09.942Z,2.59
2018-03-07T07:36:37.433Z,2.66
2018-03-07T07:39:04.897Z,2.72
2018-03-07T07:41:32.353Z,2.75
2018-03-07T07:43:59.906Z,2.80
2018-03-07T07:46:27.378Z,2.84
2018-03-07T07:48:54.820Z,2.81
2018-03-07T07:51:22.305Z,2.82
2018-03-07T07:53:49.749Z,2.81
2018-03-07T07:56:17.240Z,2.86
2018-03-07T07:58:44.719Z,2.89
2018-03-07T08:01:12.176Z,2.93
2018-03-07T08:03:39.714Z,2.94
2018-03-07T08:06:07.189Z,2.95
2018-03-07T08:08:34.651Z,2.97
2018-03-07T08:11:02.111Z,2.94
2018-03-07T08:13:29.586Z,2.96
2018-03-07T08:15:57.048Z,2.96
2018-03-07T08:18:24.502Z,2.98
2018-03-07T08:20:52.011Z,3.02
2018-03-07T08:23:19.485Z,3.05
2018-03-07T08:25:47.638Z,3.08
2018-03-07T08:28:15.133Z,3.08
2018-03-07T08:30:42.607Z,3.12
2018-03-07T08:33:10.045Z,3.08
2018-03-07T08:35:37.490Z,3.09
2018-03-07T08:38:05.142Z,3.07
2018-03-07T08:40:33.297Z,3.10
2018-03-07T08:43:00.750Z,3.12
2018-03-07T08:45:28.255Z,3.13
2018-03-07T08:47:55.767Z,3.17
2018-03-07T08:50:23.213Z,3.24
2018-03-07T08:52:50.683Z,3.22
2018-03-07T08:55:18.148Z,3.23
2018-03-07T08:57:45.659Z,3.24
2018-03-07T09:00:13.163Z,3.32
2018-03-07T09:02:40.757Z,3.37
2018-03-07T09:05:08.238Z,3.42
2018-03-07T09:07:35.692Z,3.50
2018-03-07T09:10:03.162Z,3.54
2018-03-07T09:12:30.609Z,3.57
2018-03-07T09:14:58.875Z,3.63
2018-03-07T09:17:27.208Z,3.76
2018-03-07T09:19:54.695Z,3.80
2018-03-07T09:22:22.219Z,3.89
2018-03-07T09:24:49.719Z,3.92
2018-03-07T09:27:17.198Z,3.95
2018-03-07T09:29:44.684Z,4.11
2018-03-07T09:32:12.158Z,4.16
2018-03-07T09:34:39.653Z,4.32
2018-03-07T09:37:07.153Z,4.40
2018-03-07T09:39:34.631Z,4.37
2018-03-07T09:42:02.117Z,4.38
2018-03-07T09:44:29.589Z,4.49
2018-03-07T09:46:57.167Z,4.52
2018-03-07T09:49:24.635Z,4.57
2018-03-07T09:51:52.163Z,4.67
2018-03-07T09:54:19.623Z,4.83
2018-03-07T09:56:47.090Z,5.08
2018-03-07T09:59:14.555Z,5.23
2018-03-07T10:01:42.023Z,5.31
2018-03-07T10:04:09.787Z,5.28
2018-03-07T10:06:37.330Z,5.33
2018-03-07T10:09:04.775Z,5.32
2018-03-07T10:11:32.231Z,5.44
2018-03-07T10:13:59.733Z,5.57
2018-03-07T10:16:27.273Z,5.66
2018-03-07T10:18:54.709Z,5.63
2018-03-07T10:21:22.214Z,5.60
2018-03-07T10:23:49.671Z,5.43
2018-03-07T10:26:17.134Z,5.38
2018-03-07T10:28:44.628Z,5.27
2018-03-07T10:31:12.143Z,5.20
2018-03-07T10:33:39.673Z,5.16
2018-03-07T10:36:07.171Z,5.10
2018-03-07T10:38:34.633Z,5.04
2018-03-07T10:41:02.155Z,5.05
2018-03-07T10:43:29.645Z,5.05
2018-03-07T10:45:57.100Z,5.00
2018-03-07T10:48:24.680Z,5.10
2018-03-07T10:50:52.144Z,5.26
2018-03-07T10:53:19.663Z,5.38
2018-03-07T10:55:47.182Z,5.63
2018-03-07T10:58:14.634Z,5.71
2018-03-07T11:00:42.189Z,5.77
2018-03-07T11:03:09.700Z,5.78
2018-03-07T11:05:37.209Z,5.69
2018-03-07T11:08:04.683Z,5.53
2018-03-07T11:10:32.195Z,5.31
2018-03-07T11:12:59.630Z,5.17
2018-03-07T11:15:27.075Z,5.16
2018-03-07T11:17:59.627Z,5.16
2018-03-07T11:20:27.194Z,5.13
2018-03-07T11:22:54.688Z,4.94
2018-03-07T11:25:22.244Z,4.84
2018-03-07T11:27:49.754Z,4.80
2018-03-07T11:30:17.258Z,4.80
2018-03-07T11:32:44.766Z,4.71
2018-03-07T11:35:12.269Z,4.65
2018-03-07T11:37:40.530Z,4.66
2018-03-07T11:40:08.069Z,4.67
2018-03-07T11:42:35.566Z,4.65
2018-03-07T11:45:03.093Z,4.68
2018-03-07T11:47:30.577Z,4.68
2018-03-07T11:49:58.205Z,4.71
2018-03-07T11:52:25.696Z,4.79
2018-03-07T11:54:53.258Z,4.88
2018-03-07T11:57:20.697Z,4.89
2018-03-07T11:59:48.166Z,4.92
2018-03-07T12:02:15.619Z,4.90
2018-03-07T12:04:43.127Z,4.87
2018-03-07T12:07:10.683Z,4.84
2018-03-07T12:09:38.172Z,4.86
2018-03-07T12:12:05.634Z,4.90
2018-03-07T12:14:33.110Z,4.96
2018-03-07T12:17:01.153Z,4.94
2018-03-07T12:19:33.671Z,4.94
2018-03-07T12:22:01.176Z,5.08
2018-03-07T12:24:28.726Z,5.09
2018-03-07T12:26:56.190Z,5.09
2018-03-07T12:29:23.661Z,5.10
2018-03-07T12:31:51.112Z,5.08
2018-03-07T12:34:18.607Z,5.06
2018-03-07T12:36:46.051Z,5.12
2018-03-07T12:39:13.525Z,5.16
2018-03-07T12:41:41.004Z,5.21
2018-03-07T12:44:08.440Z,5.20
2018-03-07T12:46:35.973Z,5.26
2018-03-07T12:49:03.429Z,5.25
2018-03-07T12:51:30.961Z,5.20
2018-03-07T12:53:58.452Z,5.20
2018-03-07T12:56:25.947Z,5.19
2018-03-07T12:58:53.449Z,5.22
2018-03-07T13:01:20.916Z,5.17
2018-03-07T13:03:48.390Z,5.12
2018-03-07T13:06:15.883Z,5.10
2018-03-07T13:08:43.356Z,5.07
2018-03-07T13:11:10.814Z,5.02
2018-03-07T13:13:38.247Z,5.07
2018-03-07T13:16:05.770Z,5.09
2018-03-07T13:18:33.224Z,5.08
2018-03-07T13:21:00.682Z,5.13
2018-03-07T13:23:28.138Z,5.08
2018-03-07T13:25:57.766Z,5.10
2018-03-07T13:28:25.248Z,5.09
2018-03-07T13:30:52.712Z,5.15
2018-03-07T13:33:20.199Z,5.23
2018-03-07T13:35:47.684Z,5.48
2018-03-07T13:38:15.174Z,5.86
2018-03-07T13:40:42.628Z,6.59
2018-03-07T13:43:10.066Z,7.37
2018-03-07T13:45:37.705Z,8.16
2018-03-07T13:48:05.182Z,8.51
2018-03-07T13:50:32.638Z,8.87
2018-03-07T13:53:00.128Z,9.18
2018-03-07T13:55:27.632Z,8.93
2018-03-07T13:57:55.164Z,8.88
2018-03-07T14:00:22.664Z,8.71
2018-03-07T14:02:50.136Z,8.63
2018-03-07T14:05:17.624Z,8.37
2018-03-07T14:07:45.130Z,8.15
2018-03-07T14:10:12.660Z,7.87
2018-03-07T14:12:40.139Z,7.70
2018-03-07T14:15:07.602Z,7.51
2018-03-07T14:17:35.042Z,7.36
2018-03-07T14:20:02.514Z,7.33
2018-03-07T14:22:29.974Z,7.22
2018-03-07T14:24:57.470Z,7.19
2018-03-07T14:27:24.932Z,7.19
2018-03-07T14:29:53.359Z,7.18
2018-03-07T14:32:20.836Z,7.07
2018-03-07T14:34:48.300Z,7.03
2018-03-07T14:37:15.806Z,7.00
2018-03-07T14:39:43.321Z,6.97
2018-03-07T14:42:10.775Z,6.92
2018-03-07T14:44:38.254Z,6.85
2018-03-07T14:47:05.733Z,6.87
2018-03-07T14:49:33.284Z,6.87
2018-03-07T14:52:00.766Z,6.81
2018-03-07T14:54:28.216Z,6.79
2018-03-07T14:56:55.702Z,6.74
2018-03-07T14:59:23.169Z,6.71
2018-03-07T15:01:50.653Z,6.69
2018-03-07T15:04:18.128Z,6.65
2018-03-07T15:06:45.604Z,6.62
2018-03-07T15:09:14.200Z,6.61
2018-03-07T15:11:41.653Z,6.60
2018-03-07T15:16:51.026Z,6.71
2018-03-07T15:19:18.537Z,6.75
2018-03-07T15:21:45.987Z,6.75
2018-03-07T15:24:13.535Z,6.78
2018-03-07T15:26:40.990Z,6.80
2018-03-07T15:29:08.462Z,6.76
2018-03-07T15:31:36.181Z,6.76
2018-03-07T15:34:03.658Z,6.71
2018-03-07T15:36:31.311Z,6.68
2018-03-07T15:38:58.757Z,6.69
2018-03-07T15:41:27.766Z,6.74
2018-03-07T15:43:55.286Z,6.79
2018-03-07T15:46:22.758Z,6.82
2018-03-07T15:48:50.217Z,6.84
2018-03-07T15:51:17.722Z,6.83
2018-03-07T15:53:45.227Z,6.82
2018-03-07T15:56:12.739Z,6.79
2018-03-07T15:58:40.244Z,6.76
2018-03-07T16:01:07.749Z,6.71
2018-03-07T16:03:35.205Z,6.68
2018-03-07T16:06:02.642Z,6.66
2018-03-07T16:08:30.119Z,6.64
2018-03-07T16:10:58.379Z,6.60
2018-03-07T16:13:25.837Z,6.63
2018-03-07T16:15:53.314Z,6.64
2018-03-07T16:18:20.756Z,6.62
2018-03-07T16:20:48.523Z,6.59
2018-03-07T16:23:16.021Z,6.56
2018-03-07T16:25:43.522Z,6.55
2018-03-07T16:28:11.033Z,6.54
2018-03-07T16:30:38.510Z,6.51
2018-03-07T16:33:05.997Z,6.48
2018-03-07T16:35:33.481Z,6.44
2018-03-07T16:38:01.001Z,6.40
2018-03-07T16:40:28.457Z,6.40
2018-03-07T16:42:55.971Z,6.38
2018-03-07T16:45:23.453Z,6.34
2018-03-07T16:47:51.066Z,6.35
2018-03-07T16:50:18.509Z,6.37
2018-03-07T16:52:45.972Z,6.34
2018-03-07T16:55:13.522Z,6.32
2018-03-07T16:57:41.005Z,6.31
2018-03-07T17:00:08.639Z,6.30
2018-03-07T17:02:36.126Z,6.28
2018-03-07T17:05:04.466Z,6.28
2018-03-07T17:07:31.957Z,6.27
2018-03-07T17:09:59.571Z,6.28
2018-03-07T17:12:27.067Z,6.30
2018-03-07T17:14:54.584Z,6.33
2018-03-07T17:17:22.097Z,6.33
2018-03-07T17:19:49.572Z,6.32
2018-03-07T17:22:17.054Z,6.32
2018-03-07T17:24:44.524Z,6.34
2018-03-07T17:27:11.965Z,6.31
2018-03-07T17:29:39.473Z,6.27
2018-03-07T17:32:06.957Z,6.27
2018-03-07T17:34:34.401Z,6.25
2018-03-07T17:37:01.894Z,6.24
2018-03-07T17:39:29.421Z,6.22
2018-03-07T17:41:56.999Z,6.22
2018-03-07T17:44:24.448Z,6.22
2018-03-07T17:46:51.897Z,6.25
2018-03-07T17:49:19.399Z,6.25
2018-03-07T17:51:46.851Z,6.25
2018-03-07T17:54:14.315Z,6.25
2018-03-07T17:56:41.779Z,6.23
2018-03-07T17:59:09.277Z,6.23
2018-03-07T18:01:36.806Z,6.21
2018-03-07T18:04:04.278Z,6.20
2018-03-07T18:06:31.777Z,6.20
2018-03-07T18:08:59.240Z,6.22
2018-03-07T18:11:26.762Z,6.21
2018-03-07T18:13:54.215Z,6.23
2018-03-07T18:16:21.682Z,6.21
2018-03-07T18:18:49.153Z,6.22
2018-03-07T18:21:16.649Z,6.21
2018-03-07T18:23:44.239Z,6.20
2018-03-07T18:26:11.692Z,6.19
2018-03-07T18:28:39.141Z,6.16
2018-03-07T18:31:06.631Z,6.14
2018-03-07T18:33:34.093Z,6.12
2018-03-07T18:36:01.573Z,6.12
2018-03-07T18:38:29.061Z,6.11
2018-03-07T18:40:56.615Z,6.11
2018-03-07T18:43:24.091Z,6.09
2018-03-07T18:45:51.634Z,6.09
2018-03-07T18:48:19.165Z,6.11
2018-03-07T18:50:46.623Z,6.10
2018-03-07T18:53:14.065Z,6.07
2018-03-07T18:55:41.543Z,6.07
2018-03-07T18:58:10.391Z,6.05
2018-03-07T19:00:37.903Z,6.05
2018-03-07T19:03:05.357Z,6.03
2018-03-07T19:05:33.736Z,6.03
2018-03-07T19:08:01.185Z,6.04
2018-03-07T19:10:28.653Z,6.03
2018-03-07T19:12:56.107Z,6.04
2018-03-07T19:15:23.562Z,6.03
2018-03-07T19:17:51.046Z,6.04
2018-03-07T19:20:20.383Z,6.00
2018-03-07T19:22:47.837Z,6.01
2018-03-07T19:25:15.331Z,5.99
2018-03-07T19:27:42.795Z,5.97
2018-03-07T19:30:10.267Z,5.95
2018-03-07T19:32:37.721Z,5.94
2018-03-07T19:35:05.176Z,5.91
2018-03-07T19:37:33.003Z,5.89
2018-03-07T19:40:00.471Z,5.88
2018-03-07T19:42:27.912Z,5.87
2018-03-07T19:44:55.380Z,5.87
2018-03-07T19:47:22.837Z,5.84
2018-03-07T19:49:50.318Z,5.82
2018-03-07T19:52:17.781Z,5.81
2018-03-07T19:54:45.260Z,5.78
2018-03-07T19:57:12.747Z,5.79
2018-03-07T19:59:40.213Z,5.77
2018-03-07T20:02:07.948Z,5.78
2018-03-07T20:04:35.451Z,5.77
2018-03-07T20:07:02.931Z,5.76
2018-03-07T20:09:30.409Z,5.77
2018-03-07T20:11:57.860Z,5.77
2018-03-07T20:14:25.335Z,5.76
2018-03-07T20:16:52.803Z,5.74
2018-03-07T20:19:20.262Z,5.72
2018-03-07T20:21:47.741Z,5.72
2018-03-07T20:24:15.219Z,5.71
2018-03-07T20:26:42.774Z,5.71
2018-03-07T20:29:10.262Z,5.70
2018-03-07T20:31:37.743Z,5.70
2018-03-07T20:34:05.242Z,5.71
2018-03-07T20:36:32.737Z,5.71
2018-03-07T20:39:00.253Z,5.72
2018-03-07T20:41:27.712Z,5.72
2018-03-07T20:43:55.164Z,5.74
2018-03-07T20:46:22.629Z,5.74
2018-03-07T20:48:50.057Z,5.75
2018-03-07T20:51:17.573Z,5.72
2018-03-07T20:53:45.042Z,5.72
2018-03-07T20:56:12.602Z,5.71
2018-03-07T20:58:40.101Z,5.71
2018-03-07T21:01:07.566Z,5.70
2018-03-07T21:03:35.012Z,5.70
2018-03-07T21:06:02.474Z,5.69
2018-03-07T21:08:30.023Z,5.69
2018-03-07T21:10:57.508Z,5.68
2018-03-07T21:13:24.996Z,5.67
2018-03-07T21:15:52.476Z,5.67
2018-03-07T21:18:19.969Z,5.65
2018-03-07T21:20:47.405Z,5.65
2018-03-07T21:23:14.877Z,5.70
2018-03-07T21:25:42.359Z,5.71
2018-03-07T21:28:09.833Z,5.71
2018-03-07T21:30:37.292Z,5.70
2018-03-07T21:33:04.746Z,5.67
2018-03-07T21:35:32.218Z,5.61
2018-03-07T21:37:59.700Z,5.54
2018-03-07T21:40:27.138Z,5.51
2018-03-07T21:42:54.596Z,5.48
2018-03-07T21:45:22.725Z,5.46
2018-03-07T21:47:50.872Z,5.45
2018-03-07T21:50:18.961Z,5.47
2018-03-07T21:52:46.390Z,5.46
2018-03-07T21:55:13.840Z,5.46
2018-03-07T21:57:41.448Z,5.46
2018-03-07T22:00:08.928Z,5.48
2018-03-07T22:02:36.922Z,5.50
2018-03-07T22:05:04.511Z,5.51
2018-03-07T22:07:31.980Z,5.53
2018-03-07T22:09:59.435Z,5.52
2018-03-07T22:12:26.862Z,5.51
2018-03-07T22:14:54.466Z,5.48
2018-03-07T22:17:21.936Z,5.46
2018-03-07T22:19:49.392Z,5.46
2018-03-07T22:22:16.829Z,5.47
2018-03-07T22:24:44.310Z,5.50
2018-03-07T22:27:11.774Z,5.55
2018-03-07T22:29:39.218Z,5.54
2018-03-07T22:32:06.701Z,5.53
2018-03-07T22:34:34.139Z,5.55
2018-03-07T22:37:01.569Z,5.55
2018-03-07T22:39:29.035Z,5.55
2018-03-07T22:41:56.530Z,5.56
2018-03-07T22:44:23.958Z,5.54
2018-03-07T22:46:51.453Z,5.52
2018-03-07T22:49:18.876Z,5.54
2018-03-07T22:51:46.379Z,5.56
2018-03-07T22:54:13.840Z,5.54
2018-03-07T22:56:41.344Z,5.55
2018-03-07T22:59:08.792Z,5.53
2018-03-07T23:01:36.219Z,5.52
2018-03-07T23:04:03.710Z,5.51
2018-03-07T23:06:31.148Z,5.50
2018-03-07T23:08:58.599Z,5.49
2018-03-07T23:11:26.079Z,5.49
2018-03-07T23:13:53.522Z,5.49
2018-03-07T23:16:20.965Z,5.48
2018-03-07T23:18:48.470Z,5.45
2018-03-07T23:21:16.110Z,5.47
2018-03-07T23:23:43.560Z,5.49
2018-03-07T23:26:11.014Z,5.51
2018-03-07T23:28:38.477Z,5.50
2018-03-07T23:31:05.975Z,5.51
2018-03-07T23:33:33.440Z,5.51
2018-03-07T23:36:00.876Z,5.52
2018-03-07T23:38:28.349Z,5.51
2018-03-07T23:40:55.788Z,5.52
2018-03-07T23:43:23.236Z,5.53
2018-03-07T23:45:50.661Z,5.50
2018-03-07T23:48:18.144Z,5.48
2018-03-07T23:50:45.636Z,5.48
2018-03-07T23:53:13.068Z,5.50
2018-03-07T23:55:40.553Z,5.54
2018-03-07T23:58:08.017Z,5.54
